sensor_id;sensor_type;location;lat;lon;timestamp;pressure;altitude;pressure_sealevel;temperature;humidity
63347;BME280;49472;49.880;8.650;2023-02-12T00:00:06;102185.75;;;12.37;nan
63347;BME280;49472;49.880;8.650;2023-02-12T00:02:32;102194.22;;;12.40;nan
63347;BME280;49472;49.880;8.650;2023-02-12T00:04:57;102191.31;;;12.47;nan
63347;BME280;49472;49.880;8.650;2023-02-12T00:07:23;102195.59;;;12.47;nan
63347;BME280;49472;49.880;8.650;2023-02-12T00:09:48;102194.91;;;12.43;nan
63347;BME280;49472;49.880;8.650;2023-02-12T00:12:13;102189.78;;;12.43;nan
63347;BME280;49472;49.880;8.650;2023-02-12T00:14:39;102192.47;;;12.40;nan
63347;BME280;49472;49.880;8.650;2023-02-12T00:17:04;102188.13;;;12.42;nan
63347;BME280;49472;49.880;8.650;2023-02-12T00:19:30;102182.91;;;12.44;nan
63347;BME280;49472;49.880;8.650;2023-02-12T00:21:55;102188.66;;;12.49;nan
63347;BME280;49472;49.880;8.650;2023-02-12T00:24:20;102186.69;;;12.54;nan
63347;BME280;49472;49.880;8.650;2023-02-12T00:26:45;102196.84;;;12.57;nan
63347;BME280;49472;49.880;8.650;2023-02-12T00:29:13;102185.72;;;12.56;nan
63347;BME280;49472;49.880;8.650;2023-02-12T00:31:38;102177.13;;;12.57;nan
63347;BME280;49472;49.880;8.650;2023-02-12T00:34:03;102186.44;;;12.60;nan
63347;BME280;49472;49.880;8.650;2023-02-12T00:36:30;102190.84;;;12.56;nan
63347;BME280;49472;49.880;8.650;2023-02-12T00:38:56;102186.69;;;12.54;nan
63347;BME280;49472;49.880;8.650;2023-02-12T00:41:22;102195.25;;;12.54;nan
63347;BME280;49472;49.880;8.650;2023-02-12T00:43:48;102194.28;;;12.57;nan
63347;BME280;49472;49.880;8.650;2023-02-12T00:46:14;102195.25;;;12.54;nan
63347;BME280;49472;49.880;8.650;2023-02-12T00:48:40;102198.91;;;12.49;nan
63347;BME280;49472;49.880;8.650;2023-02-12T00:51:06;102193.50;;;12.55;nan
63347;BME280;49472;49.880;8.650;2023-02-12T00:53:32;102183.16;;;12.56;nan
63347;BME280;49472;49.880;8.650;2023-02-12T00:55:58;102196.69;;;12.60;nan
63347;BME280;49472;49.880;8.650;2023-02-12T00:58:24;102194.13;;;12.60;nan
63347;BME280;49472;49.880;8.650;2023-02-12T01:00:49;102190.03;;;12.56;nan
63347;BME280;49472;49.880;8.650;2023-02-12T01:03:15;102191.56;;;12.60;nan
63347;BME280;49472;49.880;8.650;2023-02-12T01:05:41;102191.56;;;12.60;nan
63347;BME280;49472;49.880;8.650;2023-02-12T01:08:06;102197.53;;;12.60;nan
63347;BME280;49472;49.880;8.650;2023-02-12T01:10:32;102188.22;;;12.58;nan
63347;BME280;49472;49.880;8.650;2023-02-12T01:12:57;102191.47;;;12.62;nan
63347;BME280;49472;49.880;8.650;2023-02-12T01:15:22;102194.03;;;12.62;nan
63347;BME280;49472;49.880;8.650;2023-02-12T01:17:50;102199.06;;;12.65;nan
63347;BME280;49472;49.880;8.650;2023-02-12T01:20:17;102199.31;;;12.58;nan
63347;BME280;49472;49.880;8.650;2023-02-12T01:22:43;102197.53;;;12.60;nan
63347;BME280;49472;49.880;8.650;2023-02-12T01:25:09;102195.03;;;12.40;nan
63347;BME280;49472;49.880;8.650;2023-02-12T01:27:35;102189.50;;;12.30;nan
63347;BME280;49472;49.880;8.650;2023-02-12T01:30:00;102188.97;;;12.24;nan
63347;BME280;49472;49.880;8.650;2023-02-12T01:32:26;102186.72;;;12.35;nan
63347;BME280;49472;49.880;8.650;2023-02-12T01:34:51;102191.56;;;12.41;nan
63347;BME280;49472;49.880;8.650;2023-02-12T01:37:16;102187.75;;;12.50;nan
63347;BME280;49472;49.880;8.650;2023-02-12T01:39:42;102184.78;;;12.40;nan
63347;BME280;49472;49.880;8.650;2023-02-12T01:42:11;102181.34;;;12.58;nan
63347;BME280;49472;49.880;8.650;2023-02-12T01:44:42;102184.06;;;12.55;nan
63347;BME280;49472;49.880;8.650;2023-02-12T01:47:15;102192.16;;;12.29;nan
63347;BME280;49472;49.880;8.650;2023-02-12T01:49:43;102187.19;;;12.43;nan
63347;BME280;49472;49.880;8.650;2023-02-12T01:52:17;102186.84;;;12.51;nan
63347;BME280;49472;49.880;8.650;2023-02-12T01:54:45;102186.44;;;12.41;nan
63347;BME280;49472;49.880;8.650;2023-02-12T01:57:11;102184.09;;;12.18;nan
63347;BME280;49472;49.880;8.650;2023-02-12T01:59:39;102185.75;;;12.37;nan
63347;BME280;49472;49.880;8.650;2023-02-12T02:02:06;102185.06;;;12.34;nan
63347;BME280;49472;49.880;8.650;2023-02-12T02:04:37;102177.38;;;12.34;nan
63347;BME280;49472;49.880;8.650;2023-02-12T02:07:05;102183.84;;;12.24;nan
63347;BME280;49472;49.880;8.650;2023-02-12T02:09:34;102176.63;;;12.32;nan
63347;BME280;49472;49.880;8.650;2023-02-12T02:12:00;102174.19;;;12.10;nan
63347;BME280;49472;49.880;8.650;2023-02-12T02:14:45;102177.72;;;12.26;nan
63347;BME280;49472;49.880;8.650;2023-02-12T02:17:15;102169.06;;;12.29;nan
63347;BME280;49472;49.880;8.650;2023-02-12T02:20:02;102176.06;;;12.06;nan
63347;BME280;49472;49.880;8.650;2023-02-12T02:25:16;102189.34;;;11.95;nan
63347;BME280;49472;49.880;8.650;2023-02-12T02:27:59;102184.78;;;12.02;nan
63347;BME280;49472;49.880;8.650;2023-02-12T02:30:36;102175.78;;;12.12;nan
63347;BME280;49472;49.880;8.650;2023-02-12T02:36:26;102178.53;;;11.89;nan
63347;BME280;49472;49.880;8.650;2023-02-12T02:39:19;102182.69;;;12.10;nan
63347;BME280;49472;49.880;8.650;2023-02-12T02:44:52;102185.19;;;12.31;nan
63347;BME280;49472;49.880;8.650;2023-02-12T02:47:18;102176.63;;;12.32;nan
63347;BME280;49472;49.880;8.650;2023-02-12T02:49:50;102180.06;;;12.31;nan
63347;BME280;49472;49.880;8.650;2023-02-12T02:52:24;102177.38;;;12.34;nan
63347;BME280;49472;49.880;8.650;2023-02-12T02:54:54;102177.16;;;12.38;nan
63347;BME280;49472;49.880;8.650;2023-02-12T02:57:30;102175.34;;;12.41;nan
63347;BME280;49472;49.880;8.650;2023-02-12T03:00:04;102174.47;;;12.42;nan
63347;BME280;49472;49.880;8.650;2023-02-12T03:02:33;102184.94;;;11.99;nan
63347;BME280;49472;49.880;8.650;2023-02-12T03:05:08;102183.47;;;11.93;nan
63347;BME280;49472;49.880;8.650;2023-02-12T03:07:39;102185.47;;;12.06;nan
63347;BME280;49472;49.880;8.650;2023-02-12T03:12:45;102180.75;;;12.15;nan
63347;BME280;49472;49.880;8.650;2023-02-12T03:15:32;102170.44;;;11.98;nan
63347;BME280;49472;49.880;8.650;2023-02-12T03:18:04;102180.91;;;12.12;nan
63347;BME280;49472;49.880;8.650;2023-02-12T03:20:35;102176.25;;;12.02;nan
63347;BME280;49472;49.880;8.650;2023-02-12T03:23:10;102168.44;;;12.05;nan
63347;BME280;49472;49.880;8.650;2023-02-12T03:28:20;102178.53;;;12.08;nan
63347;BME280;49472;49.880;8.650;2023-02-12T03:33:32;102180.75;;;12.15;nan
63347;BME280;49472;49.880;8.650;2023-02-12T03:38:54;102178.75;;;12.22;nan
63347;BME280;49472;49.880;8.650;2023-02-12T03:41:31;102185.50;;;12.25;nan
63347;BME280;49472;49.880;8.650;2023-02-12T03:44:09;102181.44;;;12.38;nan
63347;BME280;49472;49.880;8.650;2023-02-12T03:46:43;102189.84;;;12.23;nan
63347;BME280;49472;49.880;8.650;2023-02-12T03:49:22;102189.50;;;12.30;nan
63347;BME280;49472;49.880;8.650;2023-02-12T03:51:49;102181.94;;;12.27;nan
63347;BME280;49472;49.880;8.650;2023-02-12T03:54:17;102190.69;;;12.23;nan
63347;BME280;49472;49.880;8.650;2023-02-12T03:57:02;102182.00;;;12.26;nan
63347;BME280;49472;49.880;8.650;2023-02-12T03:59:30;102186.41;;;12.24;nan
63347;BME280;49472;49.880;8.650;2023-02-12T04:01:57;102183.59;;;12.28;nan
63347;BME280;49472;49.880;8.650;2023-02-12T04:04:24;102186.88;;;12.32;nan
63347;BME280;49472;49.880;8.650;2023-02-12T04:06:51;102188.53;;;12.33;nan
63347;BME280;49472;49.880;8.650;2023-02-12T04:09:18;102191.28;;;12.28;nan
63347;BME280;49472;49.880;8.650;2023-02-12T04:12:17;102194.84;;;12.26;nan
63347;BME280;49472;49.880;8.650;2023-02-12T04:20:18;102197.91;;;12.34;nan
63347;BME280;49472;49.880;8.650;2023-02-12T04:25:55;102201.34;;;12.33;nan
63347;BME280;49472;49.880;8.650;2023-02-12T04:29:15;102203.16;;;12.31;nan
63347;BME280;49472;49.880;8.650;2023-02-12T04:34:11;102205.44;;;12.37;nan
63347;BME280;49472;49.880;8.650;2023-02-12T04:37:09;102211.88;;;12.46;nan
63347;BME280;49472;49.880;8.650;2023-02-12T04:39:40;102216.13;;;12.47;nan
63347;BME280;49472;49.880;8.650;2023-02-12T04:42:06;102218.75;;;12.45;nan
63347;BME280;49472;49.880;8.650;2023-02-12T04:44:33;102215.28;;;12.46;nan
63347;BME280;49472;49.880;8.650;2023-02-12T04:47:01;102220.75;;;12.38;nan
63347;BME280;49472;49.880;8.650;2023-02-12T04:49:26;102217.72;;;12.49;nan
63347;BME280;49472;49.880;8.650;2023-02-12T04:51:52;102216.97;;;12.47;nan
63347;BME280;49472;49.880;8.650;2023-02-12T04:54:19;102223.84;;;12.64;nan
63347;BME280;49472;49.880;8.650;2023-02-12T04:56:45;102228.09;;;12.65;nan
63347;BME280;49472;49.880;8.650;2023-02-12T04:59:11;102211.78;;;12.66;nan
63347;BME280;49472;49.880;8.650;2023-02-12T05:01:38;102225.25;;;12.71;nan
63347;BME280;49472;49.880;8.650;2023-02-12T05:04:04;102216.88;;;12.68;nan
63347;BME280;49472;49.880;8.650;2023-02-12T05:06:33;102225.25;;;12.71;nan
63347;BME280;49472;49.880;8.650;2023-02-12T05:08:58;102221.84;;;12.71;nan
63347;BME280;49472;49.880;8.650;2023-02-12T05:11:23;102223.34;;;12.57;nan
63347;BME280;49472;49.880;8.650;2023-02-12T05:13:50;102216.94;;;12.66;nan
63347;BME280;49472;49.880;8.650;2023-02-12T05:16:16;102207.22;;;12.73;nan
63347;BME280;49472;49.880;8.650;2023-02-12T05:18:42;102213.78;;;12.78;nan
63347;BME280;49472;49.880;8.650;2023-02-12T05:21:08;102215.69;;;12.75;nan
63347;BME280;49472;49.880;8.650;2023-02-12T05:23:36;102206.38;;;12.72;nan
63347;BME280;49472;49.880;8.650;2023-02-12T05:26:07;102210.75;;;12.70;nan
63347;BME280;49472;49.880;8.650;2023-02-12T05:28:34;102209.00;;;12.71;nan
63347;BME280;49472;49.880;8.650;2023-02-12T05:31:03;102214.09;;;12.72;nan
63347;BME280;49472;49.880;8.650;2023-02-12T05:33:29;102210.75;;;12.70;nan
63347;BME280;49472;49.880;8.650;2023-02-12T05:36:06;102214.97;;;12.71;nan
63347;BME280;49472;49.880;8.650;2023-02-12T05:38:32;102217.00;;;12.65;nan
63347;BME280;49472;49.880;8.650;2023-02-12T05:41:05;102205.97;;;12.63;nan
63347;BME280;49472;49.880;8.650;2023-02-12T05:43:31;102210.34;;;12.60;nan
63347;BME280;49472;49.880;8.650;2023-02-12T05:45:58;102210.41;;;12.59;nan
63347;BME280;49472;49.880;8.650;2023-02-12T05:48:24;102204.44;;;12.58;nan
63347;BME280;49472;49.880;8.650;2023-02-12T05:50:50;102212.97;;;12.59;nan
63347;BME280;49472;49.880;8.650;2023-02-12T05:53:15;102207.72;;;12.43;nan
63347;BME280;49472;49.880;8.650;2023-02-12T05:55:40;102206.47;;;12.33;nan
63347;BME280;49472;49.880;8.650;2023-02-12T05:58:06;102218.97;;;12.22;nan
63347;BME280;49472;49.880;8.650;2023-02-12T06:00:31;102214.19;;;12.33;nan
63347;BME280;49472;49.880;8.650;2023-02-12T06:02:56;102211.47;;;12.36;nan
63347;BME280;49472;49.880;8.650;2023-02-12T06:05:22;102216.59;;;12.36;nan
63347;BME280;49472;49.880;8.650;2023-02-12T06:07:47;102208.91;;;12.36;nan
63347;BME280;49472;49.880;8.650;2023-02-12T06:10:12;102213.50;;;12.29;nan
63347;BME280;49472;49.880;8.650;2023-02-12T06:12:38;102215.16;;;12.30;nan
63347;BME280;49472;49.880;8.650;2023-02-12T06:15:03;102215.28;;;12.27;nan
63347;BME280;49472;49.880;8.650;2023-02-12T06:17:28;102218.75;;;12.07;nan
63347;BME280;49472;49.880;8.650;2023-02-12T06:19:54;102217.19;;;12.03;nan
63347;BME280;49472;49.880;8.650;2023-02-12T06:22:19;102206.13;;;12.03;nan
63347;BME280;49472;49.880;8.650;2023-02-12T06:24:44;102210.56;;;11.99;nan
63347;BME280;49472;49.880;8.650;2023-02-12T06:27:09;102214.91;;;11.97;nan
63347;BME280;49472;49.880;8.650;2023-02-12T06:29:35;102215.19;;;11.91;nan
63347;BME280;49472;49.880;8.650;2023-02-12T06:32:00;102213.97;;;11.79;nan
63347;BME280;49472;49.880;8.650;2023-02-12T06:34:25;102223.56;;;11.74;nan
63347;BME280;49472;49.880;8.650;2023-02-12T06:36:51;102231.22;;;11.76;nan
63347;BME280;49472;49.880;8.650;2023-02-12T06:39:16;102228.75;;;11.72;nan
63347;BME280;49472;49.880;8.650;2023-02-12T06:41:42;102236.13;;;11.80;nan
63347;BME280;49472;49.880;8.650;2023-02-12T06:44:09;102238.69;;;11.80;nan
63347;BME280;49472;49.880;8.650;2023-02-12T06:46:35;102238.69;;;11.80;nan
63347;BME280;49472;49.880;8.650;2023-02-12T06:49:00;102246.25;;;11.83;nan
63347;BME280;49472;49.880;8.650;2023-02-12T06:51:27;102252.59;;;11.95;nan
63347;BME280;49472;49.880;8.650;2023-02-12T06:53:54;102251.00;;;11.92;nan
63347;BME280;49472;49.880;8.650;2023-02-12T06:56:24;102247.28;;;12.00;nan
63347;BME280;49472;49.880;8.650;2023-02-12T06:58:56;102249.78;;;12.01;nan
63347;BME280;49472;49.880;8.650;2023-02-12T07:01:24;102253.19;;;12.02;nan
63347;BME280;49472;49.880;8.650;2023-02-12T07:03:58;102262.63;;;12.01;nan
63347;BME280;49472;49.880;8.650;2023-02-12T07:06:26;102268.63;;;12.00;nan
63347;BME280;49472;49.880;8.650;2023-02-12T07:08:53;102268.63;;;12.00;nan
63347;BME280;49472;49.880;8.650;2023-02-12T07:11:32;102270.09;;;12.06;nan
63347;BME280;49472;49.880;8.650;2023-02-12T07:13:58;102268.28;;;12.08;nan
63347;BME280;49472;49.880;8.650;2023-02-12T07:16:23;102273.28;;;12.11;nan
63347;BME280;49472;49.880;8.650;2023-02-12T07:18:49;102268.53;;;12.22;nan
63347;BME280;49472;49.880;8.650;2023-02-12T07:21:17;102269.84;;;12.31;nan
63347;BME280;49472;49.880;8.650;2023-02-12T07:23:51;102269.16;;;12.27;nan
63347;BME280;49472;49.880;8.650;2023-02-12T07:26:18;102275.50;;;12.19;nan
63347;BME280;49472;49.880;8.650;2023-02-12T07:28:43;102274.97;;;12.12;nan
63347;BME280;49472;49.880;8.650;2023-02-12T07:33:36;102273.09;;;12.15;nan
63347;BME280;49472;49.880;8.650;2023-02-12T07:36:03;102280.63;;;12.19;nan
63347;BME280;49472;49.880;8.650;2023-02-12T07:38:29;102282.47;;;12.16;nan
63347;BME280;49472;49.880;8.650;2023-02-12T07:40:54;102284.59;;;12.26;nan
63347;BME280;49472;49.880;8.650;2023-02-12T07:43:23;102279.28;;;12.30;nan
63347;BME280;49472;49.880;8.650;2023-02-12T07:45:48;102281.78;;;12.32;nan
63347;BME280;49472;49.880;8.650;2023-02-12T07:48:14;102284.00;;;12.40;nan
63347;BME280;49472;49.880;8.650;2023-02-12T07:50:39;102282.84;;;12.47;nan
63347;BME280;49472;49.880;8.650;2023-02-12T07:53:04;102279.38;;;12.48;nan
63347;BME280;49472;49.880;8.650;2023-02-12T07:55:30;102284.28;;;12.52;nan
63347;BME280;49472;49.880;8.650;2023-02-12T07:57:55;102289.50;;;12.70;nan
63347;BME280;49472;49.880;8.650;2023-02-12T08:00:20;102287.75;;;12.70;nan
63347;BME280;49472;49.880;8.650;2023-02-12T08:02:53;102291.84;;;12.74;nan
63347;BME280;49472;49.880;8.650;2023-02-12T08:05:19;102291.00;;;12.74;nan
63347;BME280;49472;49.880;8.650;2023-02-12T08:07:44;102297.81;;;12.75;nan
63347;BME280;49472;49.880;8.650;2023-02-12T08:10:11;102289.69;;;12.84;nan
63347;BME280;49472;49.880;8.650;2023-02-12T08:12:37;102287.72;;;12.89;nan
63347;BME280;49472;49.880;8.650;2023-02-12T08:15:02;102295.03;;;12.98;nan
63347;BME280;49472;49.880;8.650;2023-02-12T08:17:27;102292.25;;;13.03;nan
63347;BME280;49472;49.880;8.650;2023-02-12T08:19:53;102294.56;;;13.08;nan
63347;BME280;49472;49.880;8.650;2023-02-12T08:22:18;102300.19;;;13.16;nan
63347;BME280;49472;49.880;8.650;2023-02-12T08:24:44;102299.75;;;13.25;nan
63347;BME280;49472;49.880;8.650;2023-02-12T08:27:09;102293.22;;;13.37;nan
63347;BME280;49472;49.880;8.650;2023-02-12T08:29:35;102294.75;;;13.41;nan
63347;BME280;49472;49.880;8.650;2023-02-12T08:32:02;102293.28;;;13.35;nan
63347;BME280;49472;49.880;8.650;2023-02-12T08:34:33;102303.34;;;13.40;nan
63347;BME280;49472;49.880;8.650;2023-02-12T08:36:59;102303.13;;;13.44;nan
63347;BME280;49472;49.880;8.650;2023-02-12T08:39:27;102302.53;;;13.57;nan
63347;BME280;49472;49.880;8.650;2023-02-12T08:41:54;102302.81;;;13.68;nan
63347;BME280;49472;49.880;8.650;2023-02-12T08:44:20;102301.69;;;13.74;nan
63347;BME280;49472;49.880;8.650;2023-02-12T08:46:47;102301.06;;;13.86;nan
63347;BME280;49472;49.880;8.650;2023-02-12T08:49:16;102305.38;;;13.85;nan
63347;BME280;49472;49.880;8.650;2023-02-12T08:51:45;102305.84;;;13.76;nan
63347;BME280;49472;49.880;8.650;2023-02-12T08:54:14;102308.78;;;13.86;nan
63347;BME280;49472;49.880;8.650;2023-02-12T08:56:41;102298.88;;;13.96;nan
63347;BME280;49472;49.880;8.650;2023-02-12T08:59:07;102305.28;;;14.04;nan
63347;BME280;49472;49.880;8.650;2023-02-12T09:01:36;102304.75;;;14.15;nan
63347;BME280;49472;49.880;8.650;2023-02-12T09:04:17;102306.38;;;14.16;nan
63347;BME280;49472;49.880;8.650;2023-02-12T09:06:43;102305.75;;;14.28;nan
63347;BME280;49472;49.880;8.650;2023-02-12T09:09:09;102307.88;;;14.38;nan
63347;BME280;49472;49.880;8.650;2023-02-12T09:11:34;102313.16;;;14.34;nan
63347;BME280;49472;49.880;8.650;2023-02-12T09:14:02;102317.00;;;14.43;nan
63347;BME280;49472;49.880;8.650;2023-02-12T09:16:29;102311.44;;;14.51;nan
63347;BME280;49472;49.880;8.650;2023-02-12T09:18:56;102315.06;;;14.47;nan
63347;BME280;49472;49.880;8.650;2023-02-12T09:21:21;102309.94;;;14.47;nan
63347;BME280;49472;49.880;8.650;2023-02-12T09:23:47;102310.94;;;14.44;nan
63347;BME280;49472;49.880;8.650;2023-02-12T09:26:16;102316.69;;;14.65;nan
63347;BME280;49472;49.880;8.650;2023-02-12T09:28:42;102315.56;;;14.71;nan
63347;BME280;49472;49.880;8.650;2023-02-12T09:31:10;102313.97;;;14.84;nan
63347;BME280;49472;49.880;8.650;2023-02-12T09:33:36;102314.72;;;14.86;nan
63347;BME280;49472;49.880;8.650;2023-02-12T09:36:09;102317.44;;;14.67;nan
63347;BME280;49472;49.880;8.650;2023-02-12T09:38:35;102317.44;;;14.67;nan
63347;BME280;49472;49.880;8.650;2023-02-12T09:46:29;102318.03;;;15.04;nan
63347;BME280;49472;49.880;8.650;2023-02-12T09:49:08;102319.50;;;15.08;nan
63347;BME280;49472;49.880;8.650;2023-02-12T09:51:37;102321.88;;;14.81;nan
63347;BME280;49472;49.880;8.650;2023-02-12T09:56:33;102323.38;;;15.01;nan
63347;BME280;49472;49.880;8.650;2023-02-12T09:59:01;102319.00;;;15.17;nan
63347;BME280;49472;49.880;8.650;2023-02-12T10:01:28;102320.50;;;15.06;nan
63347;BME280;49472;49.880;8.650;2023-02-12T10:03:54;102319.59;;;15.23;nan
63347;BME280;49472;49.880;8.650;2023-02-12T10:06:24;102313.00;;;15.33;nan
63347;BME280;49472;49.880;8.650;2023-02-12T10:11:46;102312.47;;;15.12;nan
63347;BME280;49472;49.880;8.650;2023-02-12T10:23:10;102314.53;;;15.81;nan
63347;BME280;49472;49.880;8.650;2023-02-12T10:25:55;102316.09;;;15.84;nan
63347;BME280;49472;49.880;8.650;2023-02-12T10:28:33;102312.88;;;15.95;nan
63347;BME280;49472;49.880;8.650;2023-02-12T10:33:44;102311.91;;;16.26;nan
63347;BME280;49472;49.880;8.650;2023-02-12T10:49:30;102298.88;;;16.42;nan
63347;BME280;49472;49.880;8.650;2023-02-12T10:52:14;102305.41;;;16.33;nan
63347;BME280;49472;49.880;8.650;2023-02-12T10:54:45;102298.81;;;16.29;nan
63347;BME280;49472;49.880;8.650;2023-02-12T10:57:20;102296.97;;;16.31;nan
63347;BME280;49472;49.880;8.650;2023-02-12T10:59:47;102294.44;;;16.15;nan
63347;BME280;49472;49.880;8.650;2023-02-12T11:02:58;102294.53;;;16.42;nan
63347;BME280;49472;49.880;8.650;2023-02-12T11:05:25;102288.91;;;16.50;nan
63347;BME280;49472;49.880;8.650;2023-02-12T11:07:52;102280.16;;;16.38;nan
63347;BME280;49472;49.880;8.650;2023-02-12T11:10:38;102288.97;;;16.48;nan
63347;BME280;49472;49.880;8.650;2023-02-12T11:13:05;102283.66;;;16.52;nan
63347;BME280;49472;49.880;8.650;2023-02-12T11:15:45;102284.28;;;16.55;nan
63347;BME280;49472;49.880;8.650;2023-02-12T11:20:50;102285.00;;;16.57;nan
63347;BME280;49472;49.880;8.650;2023-02-12T11:23:40;102266.78;;;16.73;nan
63347;BME280;49472;49.880;8.650;2023-02-12T11:31:26;102256.41;;;17.14;nan
63347;BME280;49472;49.880;8.650;2023-02-12T11:36:35;102253.66;;;17.30;nan
63347;BME280;49472;49.880;8.650;2023-02-12T11:39:01;102253.03;;;17.52;nan
63347;BME280;49472;49.880;8.650;2023-02-12T11:41:38;102239.81;;;17.57;nan
63347;BME280;49472;49.880;8.650;2023-02-12T11:44:16;102238.47;;;17.77;nan
63347;BME280;49472;49.880;8.650;2023-02-12T11:47:10;102228.22;;;17.63;nan
63347;BME280;49472;49.880;8.650;2023-02-12T11:50:03;102231.53;;;17.65;nan
63347;BME280;49472;49.880;8.650;2023-02-12T11:52:32;102232.88;;;17.70;nan
63347;BME280;49472;49.880;8.650;2023-02-12T11:55:02;102229.75;;;17.78;nan
63347;BME280;49472;49.880;8.650;2023-02-12T11:57:44;102232.28;;;17.79;nan
63347;BME280;49472;49.880;8.650;2023-02-12T12:00:13;102219.31;;;17.92;nan
63347;BME280;49472;49.880;8.650;2023-02-12T12:02:44;102218.00;;;17.87;nan
63347;BME280;49472;49.880;8.650;2023-02-12T12:05:17;102214.59;;;17.86;nan
63347;BME280;49472;49.880;8.650;2023-02-12T12:07:54;102219.75;;;17.99;nan
63347;BME280;49472;49.880;8.650;2023-02-12T12:10:33;102216.72;;;17.92;nan
63347;BME280;49472;49.880;8.650;2023-02-12T12:13:03;102214.59;;;17.86;nan
63347;BME280;49472;49.880;8.650;2023-02-12T12:15:31;102212.09;;;17.59;nan
63347;BME280;49472;49.880;8.650;2023-02-12T12:21:35;102202.34;;;17.24;nan
63347;BME280;49472;49.880;8.650;2023-02-12T12:24:31;102209.06;;;17.40;nan
63347;BME280;49472;49.880;8.650;2023-02-12T12:27:14;102207.44;;;17.64;nan
63347;BME280;49472;49.880;8.650;2023-02-12T12:30:02;102205.16;;;17.47;nan
63347;BME280;49472;49.880;8.650;2023-02-12T12:32:33;102207.00;;;17.32;nan
63347;BME280;49472;49.880;8.650;2023-02-12T12:35:01;102200.59;;;17.38;nan
63347;BME280;49472;49.880;8.650;2023-02-12T12:37:44;102198.63;;;17.54;nan
63347;BME280;49472;49.880;8.650;2023-02-12T12:43:20;102190.50;;;18.10;nan
63347;BME280;49472;49.880;8.650;2023-02-12T12:54:26;102193.88;;;17.48;nan
63347;BME280;49472;49.880;8.650;2023-02-12T12:57:07;102191.97;;;17.11;nan
63347;BME280;49472;49.880;8.650;2023-02-12T12:59:49;102186.22;;;17.46;nan
63347;BME280;49472;49.880;8.650;2023-02-12T13:20:47;102170.88;;;16.92;nan
63347;BME280;49472;49.880;8.650;2023-02-12T13:23:15;102170.44;;;16.85;nan
63347;BME280;49472;49.880;8.650;2023-02-12T13:26:23;102166.25;;;16.97;nan
63347;BME280;49472;49.880;8.650;2023-02-12T13:29:00;102164.69;;;16.95;nan
63347;BME280;49472;49.880;8.650;2023-02-12T13:31:29;102161.25;;;16.94;nan
63347;BME280;49472;49.880;8.650;2023-02-12T13:33:59;102157.34;;;17.01;nan
63347;BME280;49472;49.880;8.650;2023-02-12T13:36:24;102154.75;;;17.40;nan
63347;BME280;49472;49.880;8.650;2023-02-12T13:38:55;102152.28;;;17.64;nan
63347;BME280;49472;49.880;8.650;2023-02-12T13:41:23;102145.22;;;18.15;nan
63347;BME280;49472;49.880;8.650;2023-02-12T13:49:36;102146.03;;;17.92;nan
63347;BME280;49472;49.880;8.650;2023-02-12T13:52:08;102144.00;;;18.80;nan
63347;BME280;49472;49.880;8.650;2023-02-12T13:57:24;102137.59;;;20.52;nan
63347;BME280;49472;49.880;8.650;2023-02-12T13:59:51;102141.50;;;20.14;nan
63347;BME280;49472;49.880;8.650;2023-02-12T14:04:58;102140.19;;;20.20;nan
63347;BME280;49472;49.880;8.650;2023-02-12T14:07:40;102139.00;;;20.24;nan
63347;BME280;49472;49.880;8.650;2023-02-12T14:10:07;102136.50;;;19.90;nan
63347;BME280;49472;49.880;8.650;2023-02-12T14:12:43;102130.63;;;21.46;nan
63347;BME280;49472;49.880;8.650;2023-02-12T14:15:31;102129.06;;;23.01;nan
63347;BME280;49472;49.880;8.650;2023-02-12T14:20:34;102123.72;;;24.21;nan
63347;BME280;49472;49.880;8.650;2023-02-12T14:28:27;102114.78;;;25.28;nan
63347;BME280;49472;49.880;8.650;2023-02-12T14:31:25;102125.03;;;25.47;nan
63347;BME280;49472;49.880;8.650;2023-02-12T14:41:45;102113.66;;;26.79;nan
63347;BME280;49472;49.880;8.650;2023-02-12T14:49:17;102109.59;;;26.52;nan
63347;BME280;49472;49.880;8.650;2023-02-12T14:57:19;102107.44;;;26.48;nan
63347;BME280;49472;49.880;8.650;2023-02-12T14:59:47;102108.22;;;25.24;nan
63347;BME280;49472;49.880;8.650;2023-02-12T15:02:22;102104.69;;;23.93;nan
63347;BME280;49472;49.880;8.650;2023-02-12T15:04:50;102107.53;;;23.26;nan
63347;BME280;49472;49.880;8.650;2023-02-12T15:07:26;102105.25;;;22.57;nan
63347;BME280;49472;49.880;8.650;2023-02-12T15:18:20;102112.16;;;20.67;nan
63347;BME280;49472;49.880;8.650;2023-02-12T15:20:51;102107.72;;;20.25;nan
63347;BME280;49472;49.880;8.650;2023-02-12T15:23:42;102112.28;;;19.89;nan
63347;BME280;49472;49.880;8.650;2023-02-12T15:26:14;102110.81;;;19.76;nan
63347;BME280;49472;49.880;8.650;2023-02-12T15:28:40;102099.25;;;19.46;nan
63347;BME280;49472;49.880;8.650;2023-02-12T15:31:07;102101.50;;;19.28;nan
63347;BME280;49472;49.880;8.650;2023-02-12T15:33:38;102100.69;;;19.39;nan
63347;BME280;49472;49.880;8.650;2023-02-12T15:36:07;102093.59;;;19.18;nan
63347;BME280;49472;49.880;8.650;2023-02-12T15:38:34;102101.72;;;18.91;nan
63347;BME280;49472;49.880;8.650;2023-02-12T15:41:00;102098.16;;;18.81;nan
63347;BME280;49472;49.880;8.650;2023-02-12T15:43:34;102094.28;;;18.51;45.09
63347;BME280;49472;49.880;8.650;2023-02-12T15:46:05;102095.19;;;18.39;45.03
63347;BME280;49472;49.880;8.650;2023-02-12T15:48:35;102096.34;;;18.35;45.28
63347;BME280;49472;49.880;8.650;2023-02-12T15:51:04;102107.31;;;18.38;45.48
63347;BME280;49472;49.880;8.650;2023-02-12T15:53:32;102106.84;;;18.09;46.01
63347;BME280;49472;49.880;8.650;2023-02-12T15:55:58;102103.44;;;17.96;46.25
63347;BME280;49472;49.880;8.650;2023-02-12T15:58:27;102099.88;;;17.86;46.65
63347;BME280;49472;49.880;8.650;2023-02-12T16:00:55;102101.53;;;17.74;46.28
63347;BME280;49472;49.880;8.650;2023-02-12T16:03:29;102103.09;;;17.76;46.04